sensor_id;sensor_type;location;lat;lon;timestamp;pressure;altitude;pressure_sealevel;temperature;humidity
50105;BME280;47690;39.202;-77.198;2023-04-27T00:00:12;100404.97;;;45.16;7.52
50105;BME280;47690;39.202;-77.198;2023-04-27T00:02:42;100402.59;;;43.88;8.04
50105;BME280;47690;39.202;-77.198;2023-04-27T00:05:11;100411.81;;;43.75;8.38
50105;BME280;47690;39.202;-77.198;2023-04-27T00:07:43;100410.47;;;43.60;8.64
50105;BME280;47690;39.202;-77.198;2023-04-27T00:10:18;100419.03;;;43.69;8.11
50105;BME280;47690;39.202;-77.198;2023-04-27T00:12:47;100421.59;;;43.76;8.28
50105;BME280;47690;39.202;-77.198;2023-04-27T00:15:16;100429.31;;;43.67;8.44
50105;BME280;47690;39.202;-77.198;2023-04-27T00:17:45;100423.56;;;43.63;8.46
50105;BME280;47690;39.202;-77.198;2023-04-27T00:20:15;100428.72;;;43.65;8.57
50105;BME280;47690;39.202;-77.198;2023-04-27T00:22:44;100429.91;;;43.69;8.34
50105;BME280;47690;39.202;-77.198;2023-04-27T00:25:14;100439.19;;;43.73;8.38
50105;BME280;47690;39.202;-77.198;2023-04-27T00:27:43;100449.31;;;45.39;7.84
50105;BME280;47690;39.202;-77.198;2023-04-27T00:30:15;100444.53;;;44.72;7.49
50105;BME280;47690;39.202;-77.198;2023-04-27T00:32:43;100443.56;;;44.03;8.03
50105;BME280;47690;39.202;-77.198;2023-04-27T00:35:20;100440.03;;;44.61;8.06
50105;BME280;47690;39.202;-77.198;2023-04-27T00:37:49;100429.66;;;43.59;8.79
50105;BME280;47690;39.202;-77.198;2023-04-27T00:40:20;100436.78;;;43.24;8.97
50105;BME280;47690;39.202;-77.198;2023-04-27T00:42:49;100451.28;;;43.06;8.95
50105;BME280;47690;39.202;-77.198;2023-04-27T00:45:18;100446.06;;;42.92;9.25
50105;BME280;47690;39.202;-77.198;2023-04-27T00:47:47;100454.47;;;43.03;9.17
50105;BME280;47690;39.202;-77.198;2023-04-27T00:50:26;100469.78;;;43.09;9.43
50105;BME280;47690;39.202;-77.198;2023-04-27T00:53:00;100467.81;;;43.93;8.71
50105;BME280;47690;39.202;-77.198;2023-04-27T00:55:29;100490.78;;;44.02;8.83
50105;BME280;47690;39.202;-77.198;2023-04-27T00:57:57;100492.19;;;43.16;9.41
50105;BME280;47690;39.202;-77.198;2023-04-27T01:00:27;100498.31;;;43.23;9.41
50105;BME280;47690;39.202;-77.198;2023-04-27T01:02:56;100504.53;;;43.12;9.31
50105;BME280;47690;39.202;-77.198;2023-04-27T01:05:25;100511.69;;;42.94;9.48
50105;BME280;47690;39.202;-77.198;2023-04-27T01:07:54;100515.41;;;42.81;9.70
50105;BME280;47690;39.202;-77.198;2023-04-27T01:10:27;100516.88;;;42.96;9.65
50105;BME280;47690;39.202;-77.198;2023-04-27T01:12:57;100517.19;;;42.88;9.73
50105;BME280;47690;39.202;-77.198;2023-04-27T01:15:26;100520.22;;;43.10;9.61
50105;BME280;47690;39.202;-77.198;2023-04-27T01:18:00;100518.56;;;43.21;9.73
50105;BME280;47690;39.202;-77.198;2023-04-27T01:20:29;100515.06;;;42.78;9.81
50105;BME280;47690;39.202;-77.198;2023-04-27T01:22:58;100514.19;;;42.53;10.15
50105;BME280;47690;39.202;-77.198;2023-04-27T01:25:27;100508.78;;;42.53;10.15
50105;BME280;47690;39.202;-77.198;2023-04-27T01:27:55;100506.94;;;42.47;9.96
50105;BME280;47690;39.202;-77.198;2023-04-27T01:30:24;100503.66;;;42.45;10.20
50105;BME280;47690;39.202;-77.198;2023-04-27T01:32:59;100502.22;;;42.42;10.34
50105;BME280;47690;39.202;-77.198;2023-04-27T01:35:32;100508.78;;;42.35;10.52
50105;BME280;47690;39.202;-77.198;2023-04-27T01:38:02;100504.66;;;42.32;10.40
50105;BME280;47690;39.202;-77.198;2023-04-27T01:40:46;100509.16;;;42.38;10.18
50105;BME280;47690;39.202;-77.198;2023-04-27T01:43:17;100509.94;;;42.27;10.05
50105;BME280;47690;39.202;-77.198;2023-04-27T01:45:54;100506.25;;;42.21;10.47
50105;BME280;47690;39.202;-77.198;2023-04-27T01:48:30;100511.81;;;42.26;10.42
50105;BME280;47690;39.202;-77.198;2023-04-27T01:51:09;100504.34;;;42.10;10.50
50105;BME280;47690;39.202;-77.198;2023-04-27T01:53:57;100491.69;;;42.53;10.34
50105;BME280;47690;39.202;-77.198;2023-04-27T01:56:46;100493.72;;;42.27;10.23
50105;BME280;47690;39.202;-77.198;2023-04-27T01:59:47;100493.19;;;42.18;10.31
50105;BME280;47690;39.202;-77.198;2023-04-27T02:02:27;100490.91;;;42.34;10.59
50105;BME280;47690;39.202;-77.198;2023-04-27T02:05:03;100496.50;;;42.20;10.16
50105;BME280;47690;39.202;-77.198;2023-04-27T02:07:35;100489.75;;;42.11;10.46
50105;BME280;47690;39.202;-77.198;2023-04-27T02:10:06;100482.41;;;44.04;9.20
50105;BME280;47690;39.202;-77.198;2023-04-27T02:12:35;100476.81;;;44.23;9.20
50105;BME280;47690;39.202;-77.198;2023-04-27T02:15:07;100477.84;;;44.21;9.25
50105;BME280;47690;39.202;-77.198;2023-04-27T02:17:37;100477.13;;;42.66;9.90
50105;BME280;47690;39.202;-77.198;2023-04-27T02:20:08;100472.44;;;42.85;9.78
50105;BME280;47690;39.202;-77.198;2023-04-27T02:22:42;100479.06;;;42.16;10.44
50105;BME280;47690;39.202;-77.198;2023-04-27T02:25:11;100474.50;;;42.28;10.36
50105;BME280;47690;39.202;-77.198;2023-04-27T02:27:42;100477.31;;;42.03;10.26
50105;BME280;47690;39.202;-77.198;2023-04-27T02:30:13;100470.19;;;42.58;10.28
50105;BME280;47690;39.202;-77.198;2023-04-27T02:32:43;100465.34;;;42.29;9.94
50105;BME280;47690;39.202;-77.198;2023-04-27T02:35:12;100455.41;;;42.96;10.10
50105;BME280;47690;39.202;-77.198;2023-04-27T02:37:42;100449.06;;;43.38;9.56
50105;BME280;47690;39.202;-77.198;2023-04-27T02:40:15;100446.19;;;43.33;9.50
50105;BME280;47690;39.202;-77.198;2023-04-27T02:42:45;100433.25;;;43.23;9.47
50105;BME280;47690;39.202;-77.198;2023-04-27T02:45:15;100431.50;;;43.17;9.63
50105;BME280;47690;39.202;-77.198;2023-04-27T02:47:44;100439.19;;;42.54;9.83
50105;BME280;47690;39.202;-77.198;2023-04-27T02:50:13;100421.88;;;42.55;10.20
50105;BME280;47690;39.202;-77.198;2023-04-27T02:52:41;100435.00;;;42.82;9.88
50105;BME280;47690;39.202;-77.198;2023-04-27T02:55:11;100428.78;;;42.08;9.93
50105;BME280;47690;39.202;-77.198;2023-04-27T02:57:40;100447.47;;;41.79;10.28
50105;BME280;47690;39.202;-77.198;2023-04-27T03:00:11;100445.53;;;41.68;10.37
50105;BME280;47690;39.202;-77.198;2023-04-27T03:02:41;100446.66;;;41.78;10.43
50105;BME280;47690;39.202;-77.198;2023-04-27T03:05:10;100448.22;;;41.68;10.43
50105;BME280;47690;39.202;-77.198;2023-04-27T03:07:40;100458.09;;;41.55;10.49
50105;BME280;47690;39.202;-77.198;2023-04-27T03:10:10;100458.03;;;41.43;10.83
50105;BME280;47690;39.202;-77.198;2023-04-27T03:12:39;100458.72;;;41.39;10.58
50105;BME280;47690;39.202;-77.198;2023-04-27T03:15:09;100462.22;;;41.39;10.91
50105;BME280;47690;39.202;-77.198;2023-04-27T03:17:38;100470.03;;;41.29;10.92
50105;BME280;47690;39.202;-77.198;2023-04-27T03:20:07;100458.59;;;41.27;10.98
50105;BME280;47690;39.202;-77.198;2023-04-27T03:22:37;100454.06;;;41.20;10.66
50105;BME280;47690;39.202;-77.198;2023-04-27T03:25:06;100448.84;;;41.26;10.58
50105;BME280;47690;39.202;-77.198;2023-04-27T03:27:35;100451.97;;;41.22;10.56
50105;BME280;47690;39.202;-77.198;2023-04-27T03:30:06;100458.84;;;41.25;10.53
50105;BME280;47690;39.202;-77.198;2023-04-27T03:32:35;100457.59;;;41.21;11.01
50105;BME280;47690;39.202;-77.198;2023-04-27T03:35:05;100457.44;;;41.16;10.59
50105;BME280;47690;39.202;-77.198;2023-04-27T03:37:35;100465.69;;;41.21;10.83
50105;BME280;47690;39.202;-77.198;2023-04-27T03:40:05;100472.81;;;41.15;10.63
50105;BME280;47690;39.202;-77.198;2023-04-27T03:42:37;100470.03;;;41.47;10.40
50105;BME280;47690;39.202;-77.198;2023-04-27T03:45:07;100467.69;;;41.32;10.27
50105;BME280;47690;39.202;-77.198;2023-04-27T03:47:39;100466.97;;;41.18;10.89
50105;BME280;47690;39.202;-77.198;2023-04-27T03:50:08;100474.41;;;41.23;10.48
50105;BME280;47690;39.202;-77.198;2023-04-27T03:52:37;100470.50;;;40.93;10.75
50105;BME280;47690;39.202;-77.198;2023-04-27T03:55:08;100472.63;;;40.91;10.71
50105;BME280;47690;39.202;-77.198;2023-04-27T03:57:40;100474.69;;;40.89;11.26
50105;BME280;47690;39.202;-77.198;2023-04-27T04:00:11;100476.19;;;40.85;10.67
50105;BME280;47690;39.202;-77.198;2023-04-27T04:02:41;100474.78;;;41.89;10.54
50105;BME280;47690;39.202;-77.198;2023-04-27T04:05:12;100482.97;;;40.94;10.82
50105;BME280;47690;39.202;-77.198;2023-04-27T04:07:43;100471.59;;;40.86;11.15
50105;BME280;47690;39.202;-77.198;2023-04-27T04:10:14;100466.75;;;40.94;10.71
50105;BME280;47690;39.202;-77.198;2023-04-27T04:12:45;100465.34;;;42.60;9.93
50105;BME280;47690;39.202;-77.198;2023-04-27T04:15:16;100473.53;;;41.73;10.09
50105;BME280;47690;39.202;-77.198;2023-04-27T04:17:45;100464.47;;;41.61;10.07
50105;BME280;47690;39.202;-77.198;2023-04-27T04:20:17;100458.47;;;40.89;10.56
50105;BME280;47690;39.202;-77.198;2023-04-27T04:22:46;100456.69;;;40.83;10.64
50105;BME280;47690;39.202;-77.198;2023-04-27T04:25:16;100451.56;;;40.68;11.24
50105;BME280;47690;39.202;-77.198;2023-04-27T04:27:47;100454.16;;;40.56;11.35
50105;BME280;47690;39.202;-77.198;2023-04-27T04:30:15;100464.75;;;40.51;11.35
50105;BME280;47690;39.202;-77.198;2023-04-27T04:32:45;100472.47;;;40.47;10.99
50105;BME280;47690;39.202;-77.198;2023-04-27T04:35:14;100467.53;;;40.37;11.49
50105;BME280;47690;39.202;-77.198;2023-04-27T04:37:47;100461.97;;;40.64;11.09
50105;BME280;47690;39.202;-77.198;2023-04-27T04:40:15;100474.38;;;40.40;11.11
50105;BME280;47690;39.202;-77.198;2023-04-27T04:42:45;100472.94;;;40.37;11.22
50105;BME280;47690;39.202;-77.198;2023-04-27T04:45:13;100473.41;;;40.27;11.05
50105;BME280;47690;39.202;-77.198;2023-04-27T04:47:43;100476.09;;;40.21;11.17
50105;BME280;47690;39.202;-77.198;2023-04-27T04:50:13;100472.16;;;40.23;11.17
50105;BME280;47690;39.202;-77.198;2023-04-27T04:52:44;100467.81;;;40.15;10.97
50105;BME280;47690;39.202;-77.198;2023-04-27T04:55:14;100471.16;;;40.11;11.09
50105;BME280;47690;39.202;-77.198;2023-04-27T04:57:45;100469.72;;;40.08;11.46
50105;BME280;47690;39.202;-77.198;2023-04-27T05:00:14;100464.16;;;40.03;11.50
50105;BME280;47690;39.202;-77.198;2023-04-27T05:02:44;100466.88;;;40.03;11.16
50105;BME280;47690;39.202;-77.198;2023-04-27T05:05:13;100466.44;;;40.06;10.99
50105;BME280;47690;39.202;-77.198;2023-04-27T05:07:43;100469.75;;;40.01;11.32
50105;BME280;47690;39.202;-77.198;2023-04-27T05:10:13;100470.22;;;39.98;11.40
50105;BME280;47690;39.202;-77.198;2023-04-27T05:12:42;100474.75;;;39.98;11.52
50105;BME280;47690;39.202;-77.198;2023-04-27T05:15:11;100468.94;;;40.01;11.17
50105;BME280;47690;39.202;-77.198;2023-04-27T05:17:40;100473.09;;;39.97;11.29
50105;BME280;47690;39.202;-77.198;2023-04-27T05:20:10;100476.84;;;39.89;11.13
50105;BME280;47690;39.202;-77.198;2023-04-27T05:22:41;100483.91;;;39.97;11.54
50105;BME280;47690;39.202;-77.198;2023-04-27T05:25:10;100486.81;;;39.88;11.45
50105;BME280;47690;39.202;-77.198;2023-04-27T05:27:40;100484.75;;;39.91;11.09
50105;BME280;47690;39.202;-77.198;2023-04-27T05:30:09;100492.41;;;39.94;11.19
50105;BME280;47690;39.202;-77.198;2023-04-27T05:32:38;100481.81;;;39.85;11.45
50105;BME280;47690;39.202;-77.198;2023-04-27T05:35:07;100483.84;;;40.10;10.98
50105;BME280;47690;39.202;-77.198;2023-04-27T05:37:37;100489.28;;;39.97;11.56
50105;BME280;47690;39.202;-77.198;2023-04-27T05:40:07;100494.09;;;40.79;10.64
50105;BME280;47690;39.202;-77.198;2023-04-27T05:42:37;100489.31;;;40.75;10.61
50105;BME280;47690;39.202;-77.198;2023-04-27T05:45:07;100489.34;;;40.68;10.74
50105;BME280;47690;39.202;-77.198;2023-04-27T05:47:35;100497.00;;;40.46;11.14
50105;BME280;47690;39.202;-77.198;2023-04-27T05:50:05;100493.88;;;39.90;11.41
50105;BME280;47690;39.202;-77.198;2023-04-27T05:52:34;100481.25;;;41.00;10.63
50105;BME280;47690;39.202;-77.198;2023-04-27T05:55:06;100485.59;;;39.91;11.63
50105;BME280;47690;39.202;-77.198;2023-04-27T05:57:35;100476.72;;;40.23;11.23
50105;BME280;47690;39.202;-77.198;2023-04-27T06:00:05;100469.81;;;39.95;11.51
50105;BME280;47690;39.202;-77.198;2023-04-27T06:02:41;100457.34;;;39.87;11.52
50105;BME280;47690;39.202;-77.198;2023-04-27T06:05:12;100460.50;;;39.84;11.46
50105;BME280;47690;39.202;-77.198;2023-04-27T06:07:41;100456.16;;;39.76;11.51
50105;BME280;47690;39.202;-77.198;2023-04-27T06:10:11;100453.19;;;39.98;11.18
50105;BME280;47690;39.202;-77.198;2023-04-27T06:12:41;100436.44;;;40.60;10.90
50105;BME280;47690;39.202;-77.198;2023-04-27T06:15:13;100432.75;;;40.15;11.56
50105;BME280;47690;39.202;-77.198;2023-04-27T06:17:42;100438.88;;;39.97;11.61
50105;BME280;47690;39.202;-77.198;2023-04-27T06:20:13;100428.97;;;39.91;11.53
50105;BME280;47690;39.202;-77.198;2023-04-27T06:22:43;100435.94;;;40.06;11.43
50105;BME280;47690;39.202;-77.198;2023-04-27T06:25:15;100439.97;;;40.28;11.11
50105;BME280;47690;39.202;-77.198;2023-04-27T06:27:45;100444.44;;;40.02;11.45
50105;BME280;47690;39.202;-77.198;2023-04-27T06:30:15;100439.91;;;40.03;11.45
50105;BME280;47690;39.202;-77.198;2023-04-27T06:32:44;100443.84;;;40.00;11.76
50105;BME280;47690;39.202;-77.198;2023-04-27T06:35:13;100443.38;;;40.10;11.24
50105;BME280;47690;39.202;-77.198;2023-04-27T06:37:45;100444.44;;;40.09;11.74
50105;BME280;47690;39.202;-77.198;2023-04-27T06:40:14;100445.56;;;40.27;11.07
50105;BME280;47690;39.202;-77.198;2023-04-27T06:42:44;100442.34;;;40.05;11.58
50105;BME280;47690;39.202;-77.198;2023-04-27T06:45:14;100438.47;;;39.87;11.88
50105;BME280;47690;39.202;-77.198;2023-04-27T06:47:44;100425.41;;;40.36;11.57
50105;BME280;47690;39.202;-77.198;2023-04-27T06:50:14;100435.72;;;40.07;11.48
50105;BME280;47690;39.202;-77.198;2023-04-27T06:52:43;100425.16;;;40.45;10.96
50105;BME280;47690;39.202;-77.198;2023-04-27T06:55:13;100424.59;;;41.37;10.75
50105;BME280;47690;39.202;-77.198;2023-04-27T06:57:43;100418.84;;;42.21;10.08
50105;BME280;47690;39.202;-77.198;2023-04-27T07:00:12;100421.03;;;41.00;10.52
50105;BME280;47690;39.202;-77.198;2023-04-27T07:02:41;100424.72;;;40.80;10.73
50105;BME280;47690;39.202;-77.198;2023-04-27T07:05:11;100415.16;;;40.77;11.00
50105;BME280;47690;39.202;-77.198;2023-04-27T07:07:41;100402.69;;;42.14;10.31
50105;BME280;47690;39.202;-77.198;2023-04-27T07:10:11;100412.06;;;40.99;10.67
50105;BME280;47690;39.202;-77.198;2023-04-27T07:12:41;100413.44;;;40.58;10.74
50105;BME280;47690;39.202;-77.198;2023-04-27T07:15:11;100418.75;;;40.39;11.33
50105;BME280;47690;39.202;-77.198;2023-04-27T07:17:41;100424.38;;;40.31;11.09
50105;BME280;47690;39.202;-77.198;2023-04-27T07:20:11;100429.72;;;40.44;10.96
50105;BME280;47690;39.202;-77.198;2023-04-27T07:22:42;100426.03;;;40.38;10.83
50105;BME280;47690;39.202;-77.198;2023-04-27T07:25:11;100419.19;;;40.29;11.05
50105;BME280;47690;39.202;-77.198;2023-04-27T07:27:41;100426.34;;;40.17;11.44
50105;BME280;47690;39.202;-77.198;2023-04-27T07:30:12;100422.41;;;40.12;11.58
50105;BME280;47690;39.202;-77.198;2023-04-27T07:32:42;100422.47;;;39.99;11.19
50105;BME280;47690;39.202;-77.198;2023-04-27T07:35:11;100418.09;;;40.05;11.33
50105;BME280;47690;39.202;-77.198;2023-04-27T07:37:41;100415.31;;;40.18;11.48
50105;BME280;47690;39.202;-77.198;2023-04-27T07:40:12;100415.56;;;40.10;11.11
50105;BME280;47690;39.202;-77.198;2023-04-27T07:42:44;100424.31;;;40.05;11.22
50105;BME280;47690;39.202;-77.198;2023-04-27T07:45:15;100431.63;;;40.30;11.28
50105;BME280;47690;39.202;-77.198;2023-04-27T07:47:47;100422.66;;;40.04;11.18
50105;BME280;47690;39.202;-77.198;2023-04-27T07:50:16;100418.97;;;39.92;11.20
50105;BME280;47690;39.202;-77.198;2023-04-27T07:52:45;100422.34;;;39.80;11.44
50105;BME280;47690;39.202;-77.198;2023-04-27T07:55:15;100431.03;;;39.89;11.26
50105;BME280;47690;39.202;-77.198;2023-04-27T07:57:45;100424.56;;;39.97;11.23
50105;BME280;47690;39.202;-77.198;2023-04-27T08:00:15;100428.75;;;39.86;11.62
50105;BME280;47690;39.202;-77.198;2023-04-27T08:02:45;100423.78;;;39.76;11.41
50105;BME280;47690;39.202;-77.198;2023-04-27T08:05:15;100426.81;;;40.07;11.16
50105;BME280;47690;39.202;-77.198;2023-04-27T08:07:45;100420.28;;;39.69;11.67
50105;BME280;47690;39.202;-77.198;2023-04-27T08:10:14;100422.78;;;39.64;11.41
50105;BME280;47690;39.202;-77.198;2023-04-27T08:12:43;100425.28;;;39.65;11.38
50105;BME280;47690;39.202;-77.198;2023-04-27T08:15:13;100414.66;;;39.77;11.52
50105;BME280;47690;39.202;-77.198;2023-04-27T08:17:42;100421.53;;;39.73;11.42
50105;BME280;47690;39.202;-77.198;2023-04-27T08:20:13;100423.59;;;39.78;11.60
50105;BME280;47690;39.202;-77.198;2023-04-27T08:22:43;100425.03;;;39.73;11.01
50105;BME280;47690;39.202;-77.198;2023-04-27T08:25:13;100421.75;;;39.71;11.22
50105;BME280;47690;39.202;-77.198;2023-04-27T08:27:42;100417.34;;;39.77;10.97
50105;BME280;47690;39.202;-77.198;2023-04-27T08:30:12;100423.19;;;39.74;11.22
50105;BME280;47690;39.202;-77.198;2023-04-27T08:32:42;100415.50;;;39.71;11.23
50105;BME280;47690;39.202;-77.198;2023-04-27T08:35:13;100415.09;;;39.74;11.28
50105;BME280;47690;39.202;-77.198;2023-04-27T08:37:43;100412.22;;;39.69;11.16
50105;BME280;47690;39.202;-77.198;2023-04-27T08:40:13;100413.69;;;39.58;11.13
50105;BME280;47690;39.202;-77.198;2023-04-27T08:42:53;100417.63;;;39.62;11.32
50105;BME280;47690;39.202;-77.198;2023-04-27T08:45:25;100417.88;;;39.54;11.10
50105;BME280;47690;39.202;-77.198;2023-04-27T08:47:56;100419.31;;;39.43;11.38
50105;BME280;47690;39.202;-77.198;2023-04-27T08:50:25;100423.13;;;39.87;11.53
50105;BME280;47690;39.202;-77.198;2023-04-27T08:52:54;100421.41;;;39.27;11.20
50105;BME280;47690;39.202;-77.198;2023-04-27T08:55:23;100418.09;;;39.25;11.33
50105;BME280;47690;39.202;-77.198;2023-04-27T08:57:54;100417.47;;;39.37;11.45
50105;BME280;47690;39.202;-77.198;2023-04-27T09:00:24;100406.69;;;39.37;11.56
50105;BME280;47690;39.202;-77.198;2023-04-27T09:02:54;100407.09;;;39.33;11.33
50105;BME280;47690;39.202;-77.198;2023-04-27T09:05:24;100412.13;;;39.16;11.51
50105;BME280;47690;39.202;-77.198;2023-04-27T09:08:03;100413.94;;;39.36;11.35
50105;BME280;47690;39.202;-77.198;2023-04-27T09:10:49;100424.50;;;39.51;11.35
50105;BME280;47690;39.202;-77.198;2023-04-27T09:13:18;100420.59;;;39.27;11.30
50105;BME280;47690;39.202;-77.198;2023-04-27T09:15:49;100423.06;;;39.21;11.21
50105;BME280;47690;39.202;-77.198;2023-04-27T09:18:20;100429.94;;;39.11;11.17
50105;BME280;47690;39.202;-77.198;2023-04-27T09:20:50;100434.69;;;39.15;11.40
50105;BME280;47690;39.202;-77.198;2023-04-27T09:23:29;100441.31;;;39.33;11.46
50105;BME280;47690;39.202;-77.198;2023-04-27T09:26:03;100445.88;;;39.26;11.34
50105;BME280;47690;39.202;-77.198;2023-04-27T09:28:39;100451.97;;;39.87;10.95
50105;BME280;47690;39.202;-77.198;2023-04-27T09:31:16;100455.84;;;40.05;10.91
50105;BME280;47690;39.202;-77.198;2023-04-27T09:33:52;100459.31;;;40.19;10.89
50105;BME280;47690;39.202;-77.198;2023-04-27T09:36:22;100465.47;;;40.33;10.52
50105;BME280;47690;39.202;-77.198;2023-04-27T09:38:52;100461.50;;;40.42;10.22
50105;BME280;47690;39.202;-77.198;2023-04-27T09:41:20;100453.63;;;40.40;10.65
50105;BME280;47690;39.202;-77.198;2023-04-27T09:43:50;100460.06;;;40.39;10.25
50105;BME280;47690;39.202;-77.198;2023-04-27T09:46:22;100465.69;;;40.38;10.59
50105;BME280;47690;39.202;-77.198;2023-04-27T09:48:51;100467.56;;;40.31;10.33
50105;BME280;47690;39.202;-77.198;2023-04-27T09:51:20;100473.00;;;39.65;10.88
50105;BME280;47690;39.202;-77.198;2023-04-27T09:53:51;100483.78;;;39.31;11.22
50105;BME280;47690;39.202;-77.198;2023-04-27T09:56:50;100493.09;;;39.55;11.11
50105;BME280;47690;39.202;-77.198;2023-04-27T10:02:16;100495.63;;;39.16;11.08
50105;BME280;47690;39.202;-77.198;2023-04-27T10:05:15;100498.69;;;39.33;11.38
50105;BME280;47690;39.202;-77.198;2023-04-27T10:07:52;100497.91;;;39.13;11.23
50105;BME280;47690;39.202;-77.198;2023-04-27T10:10:21;100504.25;;;38.85;11.40
50105;BME280;47690;39.202;-77.198;2023-04-27T10:12:59;100499.91;;;38.84;11.85
50105;BME280;47690;39.202;-77.198;2023-04-27T10:15:28;100496.78;;;38.73;11.60
50105;BME280;47690;39.202;-77.198;2023-04-27T10:18:03;100505.88;;;38.72;11.74
50105;BME280;47690;39.202;-77.198;2023-04-27T10:20:35;100495.13;;;38.72;11.55
50105;BME280;47690;39.202;-77.198;2023-04-27T10:23:05;100499.47;;;38.73;11.58
50105;BME280;47690;39.202;-77.198;2023-04-27T10:25:40;100500.50;;;38.72;11.73
50105;BME280;47690;39.202;-77.198;2023-04-27T10:28:15;100502.97;;;38.67;11.83
50105;BME280;47690;39.202;-77.198;2023-04-27T10:30:48;100507.75;;;38.65;11.51
50105;BME280;47690;39.202;-77.198;2023-04-27T10:33:21;100507.13;;;38.63;11.70
50105;BME280;47690;39.202;-77.198;2023-04-27T10:35:58;100507.31;;;38.68;11.69
50105;BME280;47690;39.202;-77.198;2023-04-27T10:38:29;100514.78;;;38.66;11.64
50105;BME280;47690;39.202;-77.198;2023-04-27T10:41:00;100525.34;;;38.67;11.62
50105;BME280;47690;39.202;-77.198;2023-04-27T10:43:31;100529.06;;;38.66;11.57
50105;BME280;47690;39.202;-77.198;2023-04-27T10:46:12;100524.72;;;38.72;11.78
50105;BME280;47690;39.202;-77.198;2023-04-27T10:48:42;100525.97;;;38.70;11.47
50105;BME280;47690;39.202;-77.198;2023-04-27T10:51:15;100523.28;;;38.70;11.88
50105;BME280;47690;39.202;-77.198;2023-04-27T10:53:51;100527.22;;;38.74;11.65
50105;BME280;47690;39.202;-77.198;2023-04-27T10:56:21;100533.00;;;38.64;11.60
50105;BME280;47690;39.202;-77.198;2023-04-27T10:58:51;100532.81;;;38.65;11.87
50105;BME280;47690;39.202;-77.198;2023-04-27T11:01:25;100534.88;;;38.77;11.77
50105;BME280;47690;39.202;-77.198;2023-04-27T11:03:56;100531.38;;;38.83;11.54
50105;BME280;47690;39.202;-77.198;2023-04-27T11:06:27;100525.56;;;38.79;11.66
50105;BME280;47690;39.202;-77.198;2023-04-27T11:08:58;100518.34;;;38.80;11.68
50105;BME280;47690;39.202;-77.198;2023-04-27T11:11:27;100523.31;;;38.83;11.48
50105;BME280;47690;39.202;-77.198;2023-04-27T11:13:56;100527.19;;;38.67;11.76
50105;BME280;47690;39.202;-77.198;2023-04-27T11:16:25;100533.66;;;38.73;11.72
50105;BME280;47690;39.202;-77.198;2023-04-27T11:19:03;100531.59;;;38.88;11.69
50105;BME280;47690;39.202;-77.198;2023-04-27T11:21:33;100529.09;;;38.87;11.45
50105;BME280;47690;39.202;-77.198;2023-04-27T11:24:04;100535.31;;;38.74;11.92
50105;BME280;47690;39.202;-77.198;2023-04-27T11:26:33;100538.38;;;38.71;11.93
50105;BME280;47690;39.202;-77.198;2023-04-27T11:29:05;100539.84;;;38.73;11.65
50105;BME280;47690;39.202;-77.198;2023-04-27T11:31:38;100552.88;;;38.70;11.74
50105;BME280;47690;39.202;-77.198;2023-04-27T11:34:08;100551.22;;;38.75;11.84
50105;BME280;47690;39.202;-77.198;2023-04-27T11:36:54;100557.69;;;38.81;11.90
50105;BME280;47690;39.202;-77.198;2023-04-27T11:39:44;100553.13;;;38.95;11.89
50105;BME280;47690;39.202;-77.198;2023-04-27T11:42:18;100563.06;;;38.88;12.10
50105;BME280;47690;39.202;-77.198;2023-04-27T11:44:56;100566.78;;;38.87;12.21
50105;BME280;47690;39.202;-77.198;2023-04-27T11:47:30;100569.28;;;38.88;12.09
50105;BME280;47690;39.202;-77.198;2023-04-27T11:50:05;100568.94;;;38.98;11.91
50105;BME280;47690;39.202;-77.198;2023-04-27T11:52:36;100565.19;;;38.99;12.01
50105;BME280;47690;39.202;-77.198;2023-04-27T11:55:09;100561.88;;;39.04;11.87
50105;BME280;47690;39.202;-77.198;2023-04-27T11:57:44;100566.66;;;39.15;11.69
50105;BME280;47690;39.202;-77.198;2023-04-27T12:00:13;100569.78;;;39.12;11.87
50105;BME280;47690;39.202;-77.198;2023-04-27T12:02:43;100576.84;;;39.20;12.10
50105;BME280;47690;39.202;-77.198;2023-04-27T12:05:13;100580.16;;;39.22;11.86
50105;BME280;47690;39.202;-77.198;2023-04-27T12:07:44;100590.09;;;39.35;11.91
50105;BME280;47690;39.202;-77.198;2023-04-27T12:10:15;100591.34;;;39.39;11.92
50105;BME280;47690;39.202;-77.198;2023-04-27T12:12:44;100596.75;;;39.39;12.23
50105;BME280;47690;39.202;-77.198;2023-04-27T12:15:14;100591.56;;;39.44;11.82
50105;BME280;47690;39.202;-77.198;2023-04-27T12:17:44;100590.94;;;39.49;12.09
50105;BME280;47690;39.202;-77.198;2023-04-27T12:20:14;100595.94;;;39.52;12.08
50105;BME280;47690;39.202;-77.198;2023-04-27T12:22:43;100591.16;;;39.47;12.22
50105;BME280;47690;39.202;-77.198;2023-04-27T12:25:13;100598.63;;;39.52;12.44
50105;BME280;47690;39.202;-77.198;2023-04-27T12:27:43;100592.59;;;39.64;12.26
50105;BME280;47690;39.202;-77.198;2023-04-27T12:30:15;100590.53;;;39.66;12.18
50105;BME280;47690;39.202;-77.198;2023-04-27T12:32:45;100588.03;;;39.71;12.24
50105;BME280;47690;39.202;-77.198;2023-04-27T12:35:14;100591.34;;;39.80;11.86
50105;BME280;47690;39.202;-77.198;2023-04-27T12:37:44;100587.41;;;39.82;12.64
50105;BME280;47690;39.202;-77.198;2023-04-27T12:40:16;100586.56;;;39.88;12.01
50105;BME280;47690;39.202;-77.198;2023-04-27T12:42:45;100587.81;;;39.93;12.33
50105;BME280;47690;39.202;-77.198;2023-04-27T12:45:14;100589.69;;;40.06;11.97
50105;BME280;47690;39.202;-77.198;2023-04-27T12:47:44;100591.91;;;40.22;11.97
50105;BME280;47690;39.202;-77.198;2023-04-27T12:50:32;100602.63;;;40.49;12.29
50105;BME280;47690;39.202;-77.198;2023-04-27T12:53:05;100591.78;;;40.56;11.78